createdAt,value
2023-05-05T00:00:14.965Z,382.00
2023-05-05T00:01:14.986Z,384.00
2023-05-05T00:02:14.988Z,383.00
2023-05-05T00:03:15.038Z,383.00
2023-05-05T00:04:15.014Z,382.00
2023-05-05T00:05:14.935Z,382.00
2023-05-05T00:06:14.930Z,384.00
2023-05-05T00:07:14.917Z,384.00
2023-05-05T00:08:14.916Z,382.00
2023-05-05T00:09:14.916Z,381.00
2023-05-05T00:10:14.915Z,379.00
2023-05-05T00:11:14.901Z,378.00
2023-05-05T00:12:14.923Z,377.00
2023-05-05T00:13:14.941Z,376.00
2023-05-05T00:14:14.877Z,376.00
2023-05-05T00:15:14.893Z,375.00
2023-05-05T00:16:14.884Z,374.00
2023-05-05T00:17:14.909Z,377.00
2023-05-05T00:18:14.863Z,380.00
2023-05-05T00:19:14.866Z,378.00
2023-05-05T00:20:14.849Z,376.00
2023-05-05T00:21:14.846Z,377.00
2023-05-05T00:22:14.829Z,378.00
2023-05-05T00:23:14.844Z,378.00
2023-05-05T00:24:14.843Z,377.00
2023-05-05T00:25:14.817Z,378.00
2023-05-05T00:26:14.797Z,378.00
2023-05-05T00:27:14.799Z,379.00
2023-05-05T00:28:14.818Z,379.00
2023-05-05T00:29:14.860Z,378.00
2023-05-05T00:30:14.862Z,380.00
2023-05-05T00:31:14.899Z,380.00
2023-05-05T00:32:14.881Z,380.00
2023-05-05T00:33:14.959Z,379.00
2023-05-05T00:34:14.899Z,380.00
2023-05-05T00:35:14.916Z,379.00
2023-05-05T00:36:14.979Z,379.00
2023-05-05T00:37:14.956Z,375.00
2023-05-05T00:38:14.954Z,375.00
2023-05-05T00:39:14.962Z,378.00
2023-05-05T00:40:14.943Z,381.00
2023-05-05T00:41:14.954Z,381.00
2023-05-05T00:42:14.996Z,384.00
2023-05-05T00:43:14.962Z,382.00
2023-05-05T00:44:14.922Z,380.00
2023-05-05T00:45:14.937Z,379.00
2023-05-05T00:46:14.965Z,379.00
2023-05-05T00:47:14.917Z,378.00
2023-05-05T00:48:14.914Z,381.00
2023-05-05T00:49:14.922Z,382.00
2023-05-05T00:50:14.889Z,381.00
2023-05-05T00:51:14.924Z,381.00
2023-05-05T00:52:14.888Z,378.00
2023-05-05T00:53:14.878Z,379.00
2023-05-05T00:54:14.864Z,378.00
2023-05-05T00:55:14.874Z,380.00
2023-05-05T00:56:14.840Z,380.00
2023-05-05T00:57:14.902Z,382.00
2023-05-05T00:58:14.864Z,381.00
2023-05-05T00:59:14.840Z,382.00
2023-05-05T01:00:14.828Z,382.00
2023-05-05T01:01:14.863Z,382.00
2023-05-05T01:02:14.822Z,382.00
2023-05-05T01:03:14.874Z,383.00
2023-05-05T01:04:14.804Z,383.00
2023-05-05T01:05:14.814Z,383.00
2023-05-05T01:06:14.789Z,386.00
2023-05-05T01:07:14.806Z,384.00
2023-05-05T01:08:14.785Z,382.00
2023-05-05T01:09:14.786Z,382.00
2023-05-05T01:10:20.119Z,382.00
2023-05-05T01:11:15.764Z,382.00
2023-05-05T01:12:14.753Z,381.00
2023-05-05T01:13:14.767Z,380.00
2023-05-05T01:14:14.782Z,381.00
2023-05-05T01:15:14.744Z,380.00
2023-05-05T01:16:14.807Z,379.00
2023-05-05T01:17:14.755Z,380.00
2023-05-05T01:18:14.733Z,380.00
2023-05-05T01:19:14.730Z,381.00
2023-05-05T01:20:14.721Z,383.00
2023-05-05T01:21:14.743Z,385.00
2023-05-05T01:22:14.710Z,387.00
2023-05-05T01:23:14.699Z,385.00
2023-05-05T01:24:14.714Z,383.00
2023-05-05T01:25:14.691Z,383.00
2023-05-05T01:26:14.673Z,381.00
2023-05-05T01:27:14.675Z,379.00
2023-05-05T01:28:14.674Z,378.00
2023-05-05T01:29:14.674Z,377.00
2023-05-05T01:30:14.663Z,378.00
2023-05-05T01:31:14.734Z,377.00
2023-05-05T01:32:14.649Z,375.00
2023-05-05T01:33:14.684Z,377.00
2023-05-05T01:34:14.641Z,377.00
2023-05-05T01:35:14.654Z,377.00
2023-05-05T01:36:14.621Z,377.00
2023-05-05T01:37:14.631Z,375.00
2023-05-05T01:38:14.626Z,374.00
2023-05-05T01:39:14.627Z,377.00
2023-05-05T01:40:14.640Z,380.00
2023-05-05T01:41:14.662Z,378.00
2023-05-05T01:42:14.676Z,377.00
2023-05-05T01:43:14.693Z,378.00
2023-05-05T01:44:14.706Z,378.00
2023-05-05T01:45:14.734Z,378.00
2023-05-05T01:46:14.878Z,378.00
2023-05-05T01:47:14.735Z,378.00
2023-05-05T01:48:14.759Z,378.00
2023-05-05T01:49:14.770Z,377.00
2023-05-05T01:50:14.789Z,379.00
2023-05-05T01:51:14.794Z,380.00
2023-05-05T01:52:14.817Z,381.00
2023-05-05T01:53:14.843Z,382.00
2023-05-05T01:54:14.884Z,381.00
2023-05-05T01:55:14.920Z,381.00
2023-05-05T01:56:14.992Z,383.00
2023-05-05T01:57:15.008Z,382.00
2023-05-05T01:58:15.032Z,381.00
2023-05-05T01:59:15.085Z,379.00
2023-05-05T02:00:15.072Z,377.00
2023-05-05T02:01:15.096Z,375.00
2023-05-05T02:02:15.072Z,375.00
2023-05-05T02:03:15.331Z,374.00
2023-05-05T02:04:15.102Z,372.00
2023-05-05T02:05:15.142Z,372.00
2023-05-05T02:06:15.158Z,371.00
2023-05-05T02:07:15.145Z,372.00
2023-05-05T02:08:15.167Z,372.00
2023-05-05T02:09:15.192Z,372.00
2023-05-05T02:10:15.181Z,373.00
2023-05-05T02:11:15.164Z,374.00
2023-05-05T02:12:15.200Z,374.00
2023-05-05T02:13:15.359Z,372.00
2023-05-05T02:14:15.164Z,375.00
2023-05-05T02:15:15.176Z,377.00
2023-05-05T02:16:15.190Z,378.00
2023-05-05T02:17:15.161Z,376.00
2023-05-05T02:18:15.177Z,375.00
2023-05-05T02:19:15.190Z,373.00
2023-05-05T02:20:15.141Z,377.00
2023-05-05T02:21:15.161Z,375.00
2023-05-05T02:22:15.130Z,374.00
2023-05-05T02:23:15.137Z,377.00
2023-05-05T02:24:15.132Z,377.00
2023-05-05T02:25:15.112Z,377.00
2023-05-05T02:26:15.099Z,378.00
2023-05-05T02:27:15.100Z,379.00
2023-05-05T02:28:15.118Z,378.00
2023-05-05T02:29:15.079Z,376.00
2023-05-05T02:30:15.080Z,373.00
2023-05-05T02:31:15.082Z,373.00
2023-05-05T02:32:15.067Z,374.00
2023-05-05T02:33:15.101Z,374.00
2023-05-05T02:34:15.094Z,375.00
2023-05-05T02:35:15.117Z,373.00
2023-05-05T02:36:15.169Z,376.00
2023-05-05T02:37:15.167Z,376.00
2023-05-05T02:38:15.184Z,376.00
2023-05-05T02:39:15.193Z,375.00
2023-05-05T02:40:15.193Z,376.00
2023-05-05T02:41:15.226Z,376.00
2023-05-05T02:42:15.275Z,377.00
2023-05-05T02:43:15.312Z,377.00
2023-05-05T02:44:15.258Z,376.00
2023-05-05T02:45:15.287Z,375.00
2023-05-05T02:46:15.317Z,375.00
2023-05-05T02:47:15.302Z,375.00
2023-05-05T02:48:15.352Z,375.00
2023-05-05T02:49:15.320Z,376.00
2023-05-05T02:50:15.356Z,376.00
2023-05-05T02:51:15.517Z,376.00
2023-05-05T02:52:15.370Z,377.00
2023-05-05T02:53:15.405Z,379.00
2023-05-05T02:54:15.469Z,375.00
2023-05-05T02:55:15.455Z,374.00
2023-05-05T02:56:15.454Z,373.00
2023-05-05T02:57:15.474Z,373.00
2023-05-05T02:58:15.483Z,374.00
2023-05-05T02:59:16.303Z,375.00
2023-05-05T03:00:15.497Z,376.00
2023-05-05T03:01:15.559Z,378.00
2023-05-05T03:02:15.563Z,378.00
2023-05-05T03:03:15.687Z,378.00
2023-05-05T03:04:15.577Z,378.00
2023-05-05T03:05:15.582Z,376.00
2023-05-05T03:06:15.618Z,379.00
2023-05-05T03:07:15.660Z,376.00
2023-05-05T03:08:15.708Z,371.00
2023-05-05T03:09:15.746Z,371.00
2023-05-05T03:10:15.846Z,374.00
2023-05-05T03:11:15.804Z,374.00
2023-05-05T03:12:15.858Z,376.00
2023-05-05T03:13:15.928Z,376.00
2023-05-05T03:14:15.866Z,376.00
2023-05-05T03:15:15.876Z,377.00
2023-05-05T03:16:15.932Z,377.00
2023-05-05T03:17:15.909Z,373.00
2023-05-05T03:18:15.930Z,373.00
2023-05-05T03:19:15.949Z,375.00
2023-05-05T03:20:15.982Z,374.00
2023-05-05T03:21:16.005Z,374.00
2023-05-05T03:22:16.031Z,374.00
2023-05-05T03:23:16.003Z,374.00
2023-05-05T03:24:15.983Z,375.00
2023-05-05T03:25:15.990Z,377.00
2023-05-05T03:26:16.012Z,375.00
2023-05-05T03:27:16.000Z,375.00
2023-05-05T03:28:16.005Z,376.00
2023-05-05T03:29:16.027Z,377.00
2023-05-05T03:30:15.994Z,376.00
2023-05-05T03:31:16.088Z,375.00
2023-05-05T03:32:16.009Z,375.00
2023-05-05T03:33:16.006Z,376.00
2023-05-05T03:34:15.978Z,379.00
2023-05-05T03:35:15.990Z,380.00
2023-05-05T03:36:15.973Z,382.00
2023-05-05T03:37:15.962Z,380.00
2023-05-05T03:38:15.976Z,377.00
2023-05-05T03:39:15.955Z,378.00
2023-05-05T03:40:15.946Z,375.00
2023-05-05T03:41:15.946Z,377.00
2023-05-05T03:42:15.943Z,375.00
2023-05-05T03:43:15.955Z,371.00
2023-05-05T03:44:15.946Z,371.00
2023-05-05T03:45:15.952Z,373.00
2023-05-05T03:46:16.134Z,374.00
2023-05-05T03:47:16.067Z,374.00
2023-05-05T03:48:16.123Z,373.00
2023-05-05T03:49:16.173Z,372.00
2023-05-05T03:50:16.196Z,372.00
2023-05-05T03:51:16.205Z,372.00
2023-05-05T03:52:16.243Z,370.00
2023-05-05T03:53:16.288Z,367.00
2023-05-05T03:54:16.307Z,366.00
2023-05-05T03:55:16.345Z,366.00
2023-05-05T03:56:16.366Z,367.00
2023-05-05T03:57:16.383Z,369.00
2023-05-05T03:58:16.403Z,370.00
2023-05-05T03:59:16.416Z,371.00
2023-05-05T04:00:16.433Z,371.00
2023-05-05T04:01:16.429Z,369.00
2023-05-05T04:02:18.473Z,369.00
2023-05-05T04:03:16.649Z,370.00
2023-05-05T04:04:16.535Z,371.00
2023-05-05T04:05:16.555Z,370.00
2023-05-05T04:06:16.547Z,371.00
2023-05-05T04:07:16.591Z,373.00
2023-05-05T04:08:16.597Z,370.00
2023-05-05T04:09:16.624Z,369.00
2023-05-05T04:10:16.621Z,370.00
2023-05-05T04:11:16.644Z,370.00
2023-05-05T04:12:16.663Z,370.00
2023-05-05T04:13:16.845Z,372.00
2023-05-05T04:14:16.718Z,371.00
2023-05-05T04:15:16.748Z,374.00
2023-05-05T04:16:16.795Z,372.00
2023-05-05T04:17:16.789Z,371.00
2023-05-05T04:18:16.826Z,371.00
2023-05-05T04:19:16.834Z,368.00
2023-05-05T04:20:16.872Z,366.00
2023-05-05T04:21:16.888Z,366.00
2023-05-05T04:22:16.904Z,367.00
2023-05-05T04:23:16.918Z,368.00
2023-05-05T04:24:16.948Z,369.00
2023-05-05T04:25:16.959Z,371.00
2023-05-05T04:26:16.991Z,369.00
2023-05-05T04:27:17.013Z,369.00
2023-05-05T04:28:17.329Z,368.00
2023-05-05T04:29:17.047Z,365.00
2023-05-05T04:30:17.080Z,363.00
2023-05-05T04:31:17.141Z,364.00
2023-05-05T04:32:17.108Z,365.00
2023-05-05T04:33:17.145Z,364.00
2023-05-05T04:34:17.160Z,366.00
2023-05-05T04:35:17.169Z,368.00
2023-05-05T04:36:17.200Z,365.00
2023-05-05T04:37:17.235Z,364.00
2023-05-05T04:38:17.275Z,361.00
2023-05-05T04:39:17.239Z,361.00
2023-05-05T04:40:17.266Z,359.00
2023-05-05T04:41:17.316Z,361.00
2023-05-05T04:42:17.302Z,362.00
2023-05-05T04:43:17.329Z,362.00
2023-05-05T04:44:17.349Z,366.00
2023-05-05T04:45:17.357Z,367.00
2023-05-05T04:46:17.482Z,365.00
2023-05-05T04:47:17.436Z,364.00
2023-05-05T04:48:17.441Z,364.00
2023-05-05T04:49:17.461Z,363.00
2023-05-05T04:50:17.580Z,362.00
2023-05-05T04:51:17.497Z,359.00
2023-05-05T04:52:17.509Z,360.00
2023-05-05T04:53:17.539Z,361.00
2023-05-05T04:54:17.578Z,360.00
2023-05-05T04:55:17.575Z,361.00
2023-05-05T04:56:17.607Z,363.00
2023-05-05T04:57:17.609Z,361.00
2023-05-05T04:58:17.647Z,358.00
2023-05-05T04:59:17.654Z,359.00
2023-05-05T05:00:17.697Z,359.00
2023-05-05T05:01:17.697Z,362.00
2023-05-05T05:02:17.837Z,363.00
2023-05-05T05:03:17.835Z,363.00
2023-05-05T05:04:17.768Z,367.00
2023-05-05T05:05:17.779Z,365.00
2023-05-05T05:06:17.790Z,363.00
2023-05-05T05:07:17.839Z,361.00
2023-05-05T05:08:17.813Z,362.00
2023-05-05T05:09:17.836Z,364.00
2023-05-05T05:10:17.856Z,366.00
2023-05-05T05:11:17.884Z,366.00
2023-05-05T05:12:17.892Z,364.00
2023-05-05T05:13:18.010Z,363.00
2023-05-05T05:14:17.960Z,362.00
2023-05-05T05:15:17.954Z,361.00
2023-05-05T05:16:18.013Z,364.00
2023-05-05T05:17:17.991Z,364.00
2023-05-05T05:18:18.118Z,363.00
2023-05-05T05:19:18.040Z,362.00
2023-05-05T05:20:18.060Z,361.00
2023-05-05T05:21:18.107Z,360.00
2023-05-05T05:22:18.103Z,360.00
2023-05-05T05:23:18.169Z,360.00
2023-05-05T05:24:18.142Z,360.00
2023-05-05T05:25:18.186Z,362.00
2023-05-05T05:26:18.222Z,362.00
2023-05-05T05:27:18.187Z,361.00
2023-05-05T05:28:18.152Z,360.00
2023-05-05T05:29:18.156Z,362.00
2023-05-05T05:30:18.148Z,364.00
2023-05-05T05:31:18.148Z,362.00
2023-05-05T05:32:18.132Z,361.00
2023-05-05T05:33:18.130Z,362.00
2023-05-05T05:34:18.142Z,361.00
2023-05-05T05:35:18.115Z,360.00
2023-05-05T05:36:18.146Z,367.00
2023-05-05T05:37:18.096Z,410.00
2023-05-05T05:38:18.105Z,485.00
2023-05-05T05:39:18.109Z,504.00
2023-05-05T05:40:18.121Z,551.00
2023-05-05T05:41:18.091Z,563.00
2023-05-05T05:42:18.081Z,579.00
2023-05-05T05:43:18.065Z,616.00
2023-05-05T05:44:18.071Z,631.00
2023-05-05T05:45:18.089Z,642.00
2023-05-05T05:46:18.102Z,691.00
2023-05-05T05:47:18.259Z,769.00
2023-05-05T05:48:18.078Z,776.00
2023-05-05T05:49:18.058Z,783.00
2023-05-05T05:50:18.043Z,761.00
2023-05-05T05:51:18.028Z,741.00
2023-05-05T05:52:18.019Z,809.00
2023-05-05T05:53:18.013Z,788.00
2023-05-05T05:54:18.018Z,673.00
2023-05-05T05:55:18.026Z,644.00
2023-05-05T05:56:17.985Z,639.00
2023-05-05T05:57:18.069Z,616.00
2023-05-05T05:58:17.987Z,611.00
2023-05-05T05:59:17.965Z,594.00
2023-05-05T06:00:17.965Z,580.00
2023-05-05T06:01:18.001Z,568.00
2023-05-05T06:02:18.005Z,533.00
2023-05-05T06:03:18.039Z,582.00
2023-05-05T06:04:18.012Z,617.00
2023-05-05T06:05:17.935Z,585.00
2023-05-05T06:06:17.933Z,586.00
2023-05-05T06:07:17.942Z,597.00
2023-05-05T06:08:17.967Z,549.00
2023-05-05T06:09:17.986Z,547.00
2023-05-05T06:10:27.566Z,522.00
2023-05-05T06:11:19.045Z,526.00
2023-05-05T06:12:17.917Z,620.00
2023-05-05T06:13:17.961Z,636.00
2023-05-05T06:14:18.890Z,663.00
2023-05-05T06:15:17.924Z,679.00
2023-05-05T06:16:17.957Z,687.00
2023-05-05T06:17:17.921Z,691.00
2023-05-05T06:18:18.032Z,743.00
2023-05-05T06:19:17.884Z,759.00
2023-05-05T06:20:17.889Z,775.00
2023-05-05T06:21:17.871Z,780.00
2023-05-05T06:22:17.857Z,799.00
2023-05-05T06:23:17.904Z,813.00
2023-05-05T06:24:17.813Z,828.00
2023-05-05T06:25:17.838Z,840.00
2023-05-05T06:26:17.795Z,852.00
2023-05-05T06:27:17.806Z,869.00
2023-05-05T06:28:17.769Z,982.00
2023-05-05T06:29:17.752Z,994.00
2023-05-05T06:30:17.796Z,1013.00
2023-05-05T06:31:17.874Z,1058.00
2023-05-05T06:32:17.844Z,1067.00
2023-05-05T06:33:17.923Z,1075.00
2023-05-05T06:34:17.945Z,1089.00
2023-05-05T06:35:17.984Z,1097.00
2023-05-05T06:36:18.082Z,1115.00
2023-05-05T06:37:18.102Z,1130.00
2023-05-05T06:38:18.135Z,1143.00
2023-05-05T06:39:18.205Z,1158.00
2023-05-05T06:40:18.231Z,1177.00
2023-05-05T06:41:18.272Z,1187.00
2023-05-05T06:42:18.325Z,1200.00
2023-05-05T06:43:18.400Z,1210.00
2023-05-05T06:44:18.483Z,1147.00
2023-05-05T06:45:18.417Z,1183.00
2023-05-05T06:46:18.575Z,1173.00
2023-05-05T06:47:18.505Z,1167.00
2023-05-05T06:48:18.480Z,1155.00
2023-05-05T06:49:18.478Z,1144.00
2023-05-05T06:50:18.448Z,1107.00
2023-05-05T06:51:18.436Z,1082.00
2023-05-05T06:52:18.449Z,1060.00
2023-05-05T06:53:18.380Z,1051.00
2023-05-05T06:54:19.196Z,1037.00
2023-05-05T06:55:18.355Z,1019.00
2023-05-05T06:56:18.339Z,1015.00
2023-05-05T06:57:18.371Z,1008.00
2023-05-05T06:58:18.456Z,1008.00
2023-05-05T06:59:18.692Z,997.00
2023-05-05T07:00:18.540Z,928.00
2023-05-05T07:01:18.675Z,945.00
2023-05-05T07:02:19.024Z,955.00
2023-05-05T07:03:19.785Z,952.00
2023-05-05T07:04:18.722Z,949.00
2023-05-05T07:05:18.617Z,945.00
2023-05-05T07:06:18.773Z,941.00
2023-05-05T07:07:18.753Z,932.00
2023-05-05T07:08:18.804Z,938.00
2023-05-05T07:09:19.312Z,941.00
2023-05-05T07:10:18.994Z,938.00
2023-05-05T07:11:19.164Z,924.00
2023-05-05T07:12:19.084Z,911.00
2023-05-05T07:13:19.216Z,906.00
2023-05-05T07:14:20.095Z,899.00
2023-05-05T07:15:27.345Z,889.00
2023-05-05T07:16:20.188Z,874.00
2023-05-05T07:17:19.199Z,867.00
2023-05-05T07:18:19.159Z,857.00
2023-05-05T07:19:19.156Z,845.00
2023-05-05T07:20:19.134Z,838.00
2023-05-05T07:21:19.164Z,837.00
2023-05-05T07:22:19.111Z,832.00
2023-05-05T07:23:19.127Z,822.00
2023-05-05T07:24:19.091Z,812.00
2023-05-05T07:25:19.099Z,810.00
2023-05-05T07:26:19.174Z,796.00
2023-05-05T07:27:19.170Z,790.00
2023-05-05T07:28:19.247Z,790.00
2023-05-05T07:29:19.346Z,789.00
2023-05-05T07:30:19.859Z,781.00
2023-05-05T07:31:19.315Z,777.00
2023-05-05T07:32:19.445Z,768.00
2023-05-05T07:33:19.269Z,767.00
2023-05-05T07:34:19.342Z,765.00
2023-05-05T07:35:19.259Z,761.00
2023-05-05T07:36:19.222Z,753.00
2023-05-05T07:37:19.315Z,748.00
2023-05-05T07:38:19.180Z,742.00
2023-05-05T07:39:19.251Z,735.00
2023-05-05T07:40:19.186Z,816.00
2023-05-05T07:41:19.147Z,826.00
2023-05-05T07:42:19.269Z,833.00
2023-05-05T07:43:19.201Z,823.00
2023-05-05T07:44:19.271Z,783.00
2023-05-05T07:45:19.133Z,646.00
2023-05-05T07:46:19.317Z,703.00
2023-05-05T07:47:19.084Z,596.00
2023-05-05T07:48:19.096Z,600.00
2023-05-05T07:49:19.113Z,623.00
2023-05-05T07:50:19.028Z,587.00
2023-05-05T07:51:19.056Z,574.00
2023-05-05T07:52:21.481Z,563.00
2023-05-05T07:53:20.198Z,545.00
2023-05-05T07:54:19.060Z,522.00
2023-05-05T07:55:18.984Z,545.00
2023-05-05T07:56:20.465Z,521.00
2023-05-05T07:57:18.941Z,520.00
2023-05-05T07:58:19.056Z,526.00
2023-05-05T07:59:19.204Z,526.00
2023-05-05T08:00:19.016Z,518.00
2023-05-05T08:01:19.009Z,486.00
2023-05-05T08:02:19.184Z,479.00
2023-05-05T08:03:19.083Z,475.00
2023-05-05T08:04:19.003Z,466.00
2023-05-05T08:05:18.891Z,463.00
2023-05-05T08:06:18.861Z,468.00
2023-05-05T08:07:18.954Z,435.00
2023-05-05T08:08:19.851Z,436.00
2023-05-05T08:09:18.884Z,432.00
2023-05-05T08:10:18.932Z,430.00
2023-05-05T08:11:18.939Z,423.00
2023-05-05T08:12:18.897Z,415.00
2023-05-05T08:13:19.346Z,410.00
2023-05-05T08:14:18.972Z,399.00
2023-05-05T08:15:19.001Z,392.00
2023-05-05T08:16:18.901Z,383.00
2023-05-05T08:17:18.910Z,383.00
2023-05-05T08:18:18.851Z,377.00
2023-05-05T08:19:28.576Z,364.00
2023-05-05T08:20:19.803Z,361.00
2023-05-05T08:21:18.961Z,362.00
2023-05-05T08:22:18.942Z,361.00
2023-05-05T08:23:18.883Z,358.00
2023-05-05T08:24:18.853Z,356.00
2023-05-05T08:25:18.879Z,356.00
2023-05-05T08:26:18.852Z,355.00
2023-05-05T08:27:18.912Z,358.00
2023-05-05T08:28:18.986Z,353.00
2023-05-05T08:29:18.836Z,354.00
2023-05-05T08:30:18.856Z,355.00
2023-05-05T08:31:18.859Z,357.00
2023-05-05T08:32:18.816Z,367.00
2023-05-05T08:33:18.880Z,377.00
2023-05-05T08:34:18.866Z,451.00
2023-05-05T08:35:18.815Z,452.00
2023-05-05T08:36:18.754Z,455.00
2023-05-05T08:37:18.775Z,457.00
2023-05-05T08:38:18.739Z,455.00
2023-05-05T08:39:18.819Z,444.00
2023-05-05T08:40:18.718Z,452.00
2023-05-05T08:41:18.718Z,451.00
2023-05-05T08:42:32.874Z,485.00
2023-05-05T08:43:18.685Z,417.00
2023-05-05T08:44:18.684Z,415.00
2023-05-05T08:45:18.657Z,419.00
2023-05-05T08:46:18.870Z,432.00
2023-05-05T08:47:18.650Z,435.00
2023-05-05T08:48:18.656Z,464.00
2023-05-05T08:49:18.664Z,456.00
2023-05-05T08:50:18.661Z,474.00
2023-05-05T08:51:18.620Z,558.00
2023-05-05T08:52:18.625Z,550.00
2023-05-05T08:53:18.592Z,551.00
2023-05-05T08:54:18.685Z,589.00
2023-05-05T08:55:18.558Z,619.00
2023-05-05T08:56:18.559Z,618.00
2023-05-05T08:57:18.593Z,625.00
2023-05-05T08:58:18.527Z,657.00
2023-05-05T08:59:18.531Z,688.00
2023-05-05T09:00:18.514Z,679.00
2023-05-05T09:01:18.548Z,680.00
2023-05-05T09:02:18.610Z,679.00
2023-05-05T09:03:18.519Z,677.00
2023-05-05T09:04:18.473Z,714.00
2023-05-05T09:05:18.460Z,691.00
2023-05-05T09:06:18.441Z,699.00
2023-05-05T09:07:18.428Z,702.00
2023-05-05T09:08:18.376Z,697.00
2023-05-05T09:09:18.378Z,707.00
2023-05-05T09:10:18.343Z,733.00
2023-05-05T09:11:18.339Z,747.00
2023-05-05T09:12:18.313Z,738.00
2023-05-05T09:13:18.380Z,726.00
2023-05-05T09:14:18.349Z,719.00
2023-05-05T09:15:18.465Z,686.00
2023-05-05T09:16:18.480Z,711.00
2023-05-05T09:17:18.425Z,717.00
2023-05-05T09:18:18.477Z,719.00
2023-05-05T09:19:18.389Z,720.00
2023-05-05T09:20:18.371Z,731.00
2023-05-05T09:21:18.371Z,738.00
2023-05-05T09:22:18.328Z,729.00
2023-05-05T09:23:18.343Z,710.00
2023-05-05T09:24:18.299Z,707.00
2023-05-05T09:25:18.293Z,711.00
2023-05-05T09:26:18.274Z,724.00
2023-05-05T09:27:18.309Z,732.00
2023-05-05T09:28:18.341Z,774.00
2023-05-05T09:29:18.423Z,787.00
2023-05-05T09:30:18.489Z,793.00
2023-05-05T09:31:18.540Z,812.00
2023-05-05T09:32:18.525Z,814.00
2023-05-05T09:33:18.548Z,811.00
2023-05-05T09:34:18.645Z,814.00
2023-05-05T09:35:18.602Z,814.00
2023-05-05T09:36:18.629Z,815.00
2023-05-05T09:37:18.660Z,817.00
2023-05-05T09:38:18.673Z,821.00
2023-05-05T09:39:18.651Z,822.00
2023-05-05T09:40:18.646Z,816.00
2023-05-05T09:41:18.569Z,836.00
2023-05-05T09:42:18.544Z,843.00
2023-05-05T09:43:19.386Z,842.00
2023-05-05T09:44:18.502Z,851.00
2023-05-05T09:45:18.596Z,903.00
2023-05-05T09:46:18.487Z,909.00
2023-05-05T09:47:29.080Z,805.00
2023-05-05T09:48:19.423Z,795.00
2023-05-05T09:49:18.480Z,808.00
2023-05-05T09:50:18.976Z,889.00
2023-05-05T09:51:18.491Z,883.00
2023-05-05T09:52:18.307Z,1113.00
2023-05-05T09:53:18.285Z,934.00
2023-05-05T09:54:18.336Z,913.00
2023-05-05T09:55:18.272Z,912.00
2023-05-05T09:56:18.252Z,922.00
2023-05-05T09:57:18.212Z,935.00
2023-05-05T09:58:18.217Z,984.00
2023-05-05T09:59:18.163Z,975.00
2023-05-05T10:00:18.128Z,968.00
2023-05-05T10:01:18.148Z,956.00
2023-05-05T10:02:18.093Z,903.00
2023-05-05T10:03:18.163Z,899.00
2023-05-05T10:04:18.051Z,905.00
2023-05-05T10:05:18.106Z,986.00
2023-05-05T10:06:18.104Z,986.00
2023-05-05T10:07:17.993Z,1005.00
2023-05-05T10:08:17.986Z,1047.00
2023-05-05T10:09:17.924Z,1073.00
2023-05-05T10:10:17.936Z,1043.00
2023-05-05T10:11:17.891Z,1072.00
2023-05-05T10:12:17.905Z,1125.00
2023-05-05T10:13:17.889Z,1144.00
2023-05-05T10:14:17.839Z,1156.00
2023-05-05T10:15:17.873Z,1162.00
2023-05-05T10:16:17.838Z,1176.00
2023-05-05T10:17:17.756Z,1183.00
2023-05-05T10:18:17.755Z,1234.00
2023-05-05T10:19:17.731Z,1238.00
2023-05-05T10:20:17.946Z,1236.00
2023-05-05T10:21:17.714Z,1226.00
2023-05-05T10:22:17.784Z,1214.00
2023-05-05T10:23:17.705Z,1216.00
2023-05-05T10:24:17.710Z,1219.00
2023-05-05T10:25:17.727Z,1213.00
2023-05-05T10:26:17.695Z,1217.00
2023-05-05T10:27:17.680Z,1225.00
2023-05-05T10:28:17.660Z,1226.00
2023-05-05T10:29:17.662Z,1244.00
2023-05-05T10:30:17.679Z,1245.00
2023-05-05T10:31:25.672Z,1248.00
2023-05-05T10:32:46.674Z,1254.00
2023-05-05T10:34:18.598Z,1300.00
2023-05-05T10:35:17.537Z,1292.00
2023-05-05T10:36:17.566Z,1290.00
2023-05-05T10:37:17.468Z,1292.00
2023-05-05T10:38:17.477Z,1291.00
2023-05-05T10:39:17.400Z,1285.00
2023-05-05T10:40:17.361Z,1284.00
2023-05-05T10:41:17.338Z,1289.00
2023-05-05T10:42:17.341Z,1297.00
2023-05-05T10:43:17.280Z,1303.00
2023-05-05T10:44:17.314Z,1312.00
2023-05-05T10:45:17.253Z,1324.00
2023-05-05T10:46:17.215Z,1339.00
2023-05-05T10:47:17.148Z,1377.00
2023-05-05T10:48:17.191Z,1368.00
2023-05-05T10:49:17.081Z,1352.00
2023-05-05T10:50:17.039Z,1340.00
2023-05-05T10:51:27.394Z,1327.00
2023-05-05T10:52:16.986Z,1306.00
2023-05-05T10:53:16.943Z,1304.00
2023-05-05T10:54:17.086Z,1306.00
2023-05-05T10:55:16.995Z,1298.00
2023-05-05T10:56:16.837Z,1161.00
2023-05-05T10:57:16.839Z,1147.00
2023-05-05T10:58:16.774Z,1137.00
2023-05-05T10:59:16.740Z,1130.00
2023-05-05T11:00:16.712Z,1135.00
2023-05-05T11:01:16.721Z,1131.00
2023-05-05T11:02:16.640Z,1118.00
2023-05-05T11:03:16.697Z,1145.00
2023-05-05T11:04:16.583Z,1134.00
2023-05-05T11:05:16.560Z,1111.00
2023-05-05T11:06:16.503Z,1111.00
2023-05-05T11:07:16.467Z,1030.00
2023-05-05T11:08:16.453Z,1010.00
2023-05-05T11:09:16.411Z,1012.00
2023-05-05T11:10:16.517Z,1001.00
2023-05-05T11:11:16.350Z,1000.00
2023-05-05T11:12:16.351Z,999.00
2023-05-05T11:13:16.374Z,1000.00
2023-05-05T11:14:16.306Z,999.00
2023-05-05T11:15:16.285Z,1006.00
2023-05-05T11:16:16.328Z,1031.00
2023-05-05T11:17:16.187Z,1003.00
2023-05-05T11:18:16.190Z,688.00
2023-05-05T11:19:16.122Z,839.00
2023-05-05T11:20:16.085Z,905.00
2023-05-05T11:21:16.096Z,949.00
2023-05-05T11:22:16.013Z,957.00
2023-05-05T11:23:16.704Z,971.00
2023-05-05T11:24:15.945Z,981.00
2023-05-05T11:25:15.926Z,992.00
2023-05-05T11:26:15.926Z,1020.00
2023-05-05T11:27:15.849Z,1031.00
2023-05-05T11:28:15.867Z,1042.00
2023-05-05T11:29:15.834Z,1049.00
2023-05-05T11:30:15.784Z,1053.00
2023-05-05T11:31:15.814Z,1047.00
2023-05-05T11:32:15.838Z,1044.00
2023-05-05T11:33:15.655Z,1040.00
2023-05-05T11:34:15.623Z,1035.00
2023-05-05T11:35:15.599Z,1022.00
2023-05-05T11:36:15.592Z,975.00
2023-05-05T11:37:15.548Z,962.00
2023-05-05T11:38:15.529Z,959.00
2023-05-05T11:39:15.477Z,936.00
2023-05-05T11:40:15.456Z,928.00
2023-05-05T11:41:15.413Z,917.00
2023-05-05T11:42:15.475Z,905.00
2023-05-05T11:43:15.363Z,890.00
2023-05-05T11:44:15.345Z,891.00
2023-05-05T11:45:15.303Z,889.00
2023-05-05T11:46:15.291Z,888.00
2023-05-05T11:47:15.208Z,883.00
2023-05-05T11:48:15.217Z,882.00
2023-05-05T11:49:15.149Z,867.00
2023-05-05T11:50:15.106Z,851.00
2023-05-05T11:51:15.068Z,853.00
2023-05-05T11:52:15.037Z,852.00
2023-05-05T11:53:14.997Z,844.00
2023-05-05T11:54:14.971Z,834.00
2023-05-05T11:55:14.940Z,825.00
2023-05-05T11:56:14.905Z,821.00
2023-05-05T11:57:14.878Z,820.00
2023-05-05T11:58:15.006Z,815.00
2023-05-05T11:59:14.809Z,808.00
2023-05-05T12:00:14.780Z,802.00
2023-05-05T12:01:14.742Z,801.00
2023-05-05T12:02:14.727Z,799.00
2023-05-05T12:03:14.749Z,796.00
2023-05-05T12:04:14.755Z,795.00
2023-05-05T12:05:14.631Z,798.00
2023-05-05T12:06:14.595Z,798.00
2023-05-05T12:07:14.565Z,792.00
2023-05-05T12:08:14.568Z,785.00
2023-05-05T12:09:14.516Z,783.00
2023-05-05T12:10:14.487Z,784.00
2023-05-05T12:11:14.461Z,771.00
2023-05-05T12:12:14.423Z,765.00
2023-05-05T12:13:14.443Z,769.00
2023-05-05T12:14:14.437Z,774.00
2023-05-05T12:15:14.372Z,780.00
2023-05-05T12:16:14.370Z,779.00
2023-05-05T12:17:14.297Z,777.00
2023-05-05T12:18:14.268Z,773.00
2023-05-05T12:19:14.227Z,767.00
2023-05-05T12:20:14.278Z,761.00
2023-05-05T12:21:14.191Z,755.00
2023-05-05T12:22:14.160Z,750.00
2023-05-05T12:23:14.124Z,742.00
2023-05-05T12:24:14.099Z,736.00
2023-05-05T12:25:14.074Z,732.00
2023-05-05T12:26:14.029Z,725.00